sensor_id;sensor_type;location;lat;lon;timestamp;pressure;altitude;pressure_sealevel;temperature
73685;BMP280;61985;51.070;14.064;2023-02-18T00:00:58;98810.38;;;8.03
73685;BMP280;61985;51.070;14.064;2023-02-18T00:03:25;98816.53;;;8.04
73685;BMP280;61985;51.070;14.064;2023-02-18T00:05:51;98819.53;;;8.09
73685;BMP280;61985;51.070;14.064;2023-02-18T00:08:17;98816.22;;;7.98
73685;BMP280;61985;51.070;14.064;2023-02-18T00:10:42;98811.66;;;7.95
73685;BMP280;61985;51.070;14.064;2023-02-18T00:13:07;98830.53;;;7.88
73685;BMP280;61985;51.070;14.064;2023-02-18T00:15:37;98823.97;;;7.89
73685;BMP280;61985;51.070;14.064;2023-02-18T00:18:03;98813.75;;;7.76
73685;BMP280;61985;51.070;14.064;2023-02-18T00:20:29;98818.38;;;7.76
73685;BMP280;61985;51.070;14.064;2023-02-18T00:22:55;98816.84;;;7.75
73685;BMP280;61985;51.070;14.064;2023-02-18T00:25:20;98824.56;;;7.69
73685;BMP280;61985;51.070;14.064;2023-02-18T00:27:46;98816.97;;;7.61
73685;BMP280;61985;51.070;14.064;2023-02-18T00:30:11;98816.69;;;7.48
73685;BMP280;61985;51.070;14.064;2023-02-18T00:32:37;98811.78;;;7.39
73685;BMP280;61985;51.070;14.064;2023-02-18T00:35:03;98820.19;;;7.41
73685;BMP280;61985;51.070;14.064;2023-02-18T00:37:28;98813.63;;;7.46
73685;BMP280;61985;51.070;14.064;2023-02-18T00:39:54;98819.44;;;7.40
73685;BMP280;61985;51.070;14.064;2023-02-18T00:42:19;98815.22;;;7.39
73685;BMP280;61985;51.070;14.064;2023-02-18T00:44:45;98816.41;;;7.35
73685;BMP280;61985;51.070;14.064;2023-02-18T00:47:10;98820.25;;;7.30
73685;BMP280;61985;51.070;14.064;2023-02-18T00:49:35;98814.91;;;7.30
73685;BMP280;61985;51.070;14.064;2023-02-18T00:52:01;98813.75;;;7.31
73685;BMP280;61985;51.070;14.064;2023-02-18T00:54:26;98809.19;;;7.28
73685;BMP280;61985;51.070;14.064;2023-02-18T00:56:51;98810.72;;;7.29
73685;BMP280;61985;51.070;14.064;2023-02-18T00:59:17;98823.38;;;7.25
73685;BMP280;61985;51.070;14.064;2023-02-18T01:01:42;98818.38;;;7.27
73685;BMP280;61985;51.070;14.064;2023-02-18T01:04:07;98823.81;;;7.20
73685;BMP280;61985;51.070;14.064;2023-02-18T01:06:33;98820.69;;;7.25
73685;BMP280;61985;51.070;14.064;2023-02-18T01:08:58;98818.50;;;7.13
73685;BMP280;61985;51.070;14.064;2023-02-18T01:11:24;98827.28;;;7.13
73685;BMP280;61985;51.070;14.064;2023-02-18T01:13:49;98820.09;;;7.03
73685;BMP280;61985;51.070;14.064;2023-02-18T01:16:15;98820.50;;;7.01
73685;BMP280;61985;51.070;14.064;2023-02-18T01:18:41;98818.19;;;6.96
73685;BMP280;61985;51.070;14.064;2023-02-18T01:21:07;98829.66;;;7.00
73685;BMP280;61985;51.070;14.064;2023-02-18T01:23:33;98827.41;;;6.95
73685;BMP280;61985;51.070;14.064;2023-02-18T01:25:59;98815.19;;;6.87
73685;BMP280;61985;51.070;14.064;2023-02-18T01:28:24;98817.56;;;6.78
73685;BMP280;61985;51.070;14.064;2023-02-18T01:30:51;98819.03;;;6.86
73685;BMP280;61985;51.070;14.064;2023-02-18T01:33:18;98817.97;;;6.73
73685;BMP280;61985;51.070;14.064;2023-02-18T01:35:43;98806.50;;;6.72
73685;BMP280;61985;51.070;14.064;2023-02-18T01:38:08;98807.28;;;6.66
73685;BMP280;61985;51.070;14.064;2023-02-18T01:40:35;98801.88;;;6.73
73685;BMP280;61985;51.070;14.064;2023-02-18T01:43:01;98803.03;;;6.72
73685;BMP280;61985;51.070;14.064;2023-02-18T01:50:39;98810.00;;;6.58
73685;BMP280;61985;51.070;14.064;2023-02-18T01:53:06;98803.19;;;6.50
73685;BMP280;61985;51.070;14.064;2023-02-18T01:55:33;98791.69;;;6.46
73685;BMP280;61985;51.070;14.064;2023-02-18T01:57:59;98799.34;;;6.48
73685;BMP280;61985;51.070;14.064;2023-02-18T02:00:24;98800.09;;;6.48
73685;BMP280;61985;51.070;14.064;2023-02-18T02:02:51;98798.59;;;6.43
73685;BMP280;61985;51.070;14.064;2023-02-18T02:05:18;98800.94;;;6.38
73685;BMP280;61985;51.070;14.064;2023-02-18T02:07:45;98807.03;;;6.31
73685;BMP280;61985;51.070;14.064;2023-02-18T02:10:12;98810.88;;;6.26
73685;BMP280;61985;51.070;14.064;2023-02-18T02:31:40;98819.75;;;6.09
73685;BMP280;61985;51.070;14.064;2023-02-18T02:38:02;98811.34;;;6.00
73685;BMP280;61985;51.070;14.064;2023-02-18T02:40:37;98806.75;;;5.97
73685;BMP280;61985;51.070;14.064;2023-02-18T02:43:20;98806.38;;;5.91
73685;BMP280;61985;51.070;14.064;2023-02-18T02:46:00;98804.88;;;5.90
73685;BMP280;61985;51.070;14.064;2023-02-18T02:53:44;98815.50;;;6.19
73685;BMP280;61985;51.070;14.064;2023-02-18T02:56:20;98808.97;;;6.27
73685;BMP280;61985;51.070;14.064;2023-02-18T02:59:12;98814.72;;;6.25
73685;BMP280;61985;51.070;14.064;2023-02-18T03:01:46;98800.94;;;6.31
73685;BMP280;61985;51.070;14.064;2023-02-18T03:07:10;98807.41;;;6.44
73685;BMP280;61985;51.070;14.064;2023-02-18T03:12:33;98803.09;;;6.61
73685;BMP280;61985;51.070;14.064;2023-02-18T03:15:09;98810.34;;;6.68
73685;BMP280;61985;51.070;14.064;2023-02-18T03:17:50;98804.56;;;6.73
73685;BMP280;61985;51.070;14.064;2023-02-18T03:20:28;98805.72;;;6.72
73685;BMP280;61985;51.070;14.064;2023-02-18T03:22:57;98802.66;;;6.77
73685;BMP280;61985;51.070;14.064;2023-02-18T03:25:24;98802.22;;;6.82
73685;BMP280;61985;51.070;14.064;2023-02-18T03:27:59;98807.97;;;6.80
73685;BMP280;61985;51.070;14.064;2023-02-18T03:30:32;98809.09;;;6.83
73685;BMP280;61985;51.070;14.064;2023-02-18T03:33:02;98806.03;;;6.81
73685;BMP280;61985;51.070;14.064;2023-02-18T03:35:28;98803.34;;;6.81
73685;BMP280;61985;51.070;14.064;2023-02-18T03:38:06;98809.16;;;6.72
73685;BMP280;61985;51.070;14.064;2023-02-18T03:40:33;98810.31;;;6.71
73685;BMP280;61985;51.070;14.064;2023-02-18T03:42:59;98810.69;;;6.73
73685;BMP280;61985;51.070;14.064;2023-02-18T03:45:25;98813.38;;;6.70
73685;BMP280;61985;51.070;14.064;2023-02-18T03:47:50;98814.91;;;6.71
73685;BMP280;61985;51.070;14.064;2023-02-18T03:50:16;98821.06;;;6.64
73685;BMP280;61985;51.070;14.064;2023-02-18T03:52:41;98814.53;;;6.69
73685;BMP280;61985;51.070;14.064;2023-02-18T03:55:07;98822.97;;;6.63
73685;BMP280;61985;51.070;14.064;2023-02-18T03:57:33;98821.44;;;6.66
73685;BMP280;61985;51.070;14.064;2023-02-18T03:59:58;98815.31;;;6.69
73685;BMP280;61985;51.070;14.064;2023-02-18T04:02:24;98811.47;;;6.67
73685;BMP280;61985;51.070;14.064;2023-02-18T04:04:49;98807.66;;;6.64
73685;BMP280;61985;51.070;14.064;2023-02-18T04:07:14;98806.91;;;6.63
73685;BMP280;61985;51.070;14.064;2023-02-18T04:09:40;98808.47;;;6.64
73685;BMP280;61985;51.070;14.064;2023-02-18T04:12:05;98807.69;;;6.60
73685;BMP280;61985;51.070;14.064;2023-02-18T04:14:31;98813.03;;;6.60
73685;BMP280;61985;51.070;14.064;2023-02-18T04:16:56;98811.13;;;6.64
73685;BMP280;61985;51.070;14.064;2023-02-18T04:19:21;98813.75;;;6.68
73685;BMP280;61985;51.070;14.064;2023-02-18T04:21:46;98808.47;;;6.64
73685;BMP280;61985;51.070;14.064;2023-02-18T04:24:12;98829.88;;;6.61
73685;BMP280;61985;51.070;14.064;2023-02-18T04:26:37;98841.34;;;6.65
73685;BMP280;61985;51.070;14.064;2023-02-18T04:29:03;98838.25;;;6.67
73685;BMP280;61985;51.070;14.064;2023-02-18T04:31:28;98835.22;;;6.64
73685;BMP280;61985;51.070;14.064;2023-02-18T04:33:53;98841.72;;;6.63
73685;BMP280;61985;51.070;14.064;2023-02-18T04:36:19;98834.44;;;6.64
73685;BMP280;61985;51.070;14.064;2023-02-18T04:38:44;98840.19;;;6.66
73685;BMP280;61985;51.070;14.064;2023-02-18T04:41:09;98837.50;;;6.62
73685;BMP280;61985;51.070;14.064;2023-02-18T04:43:37;98838.31;;;6.63
73685;BMP280;61985;51.070;14.064;2023-02-18T04:46:02;98834.47;;;6.60
73685;BMP280;61985;51.070;14.064;2023-02-18T04:48:28;98827.22;;;6.57
73685;BMP280;61985;51.070;14.064;2023-02-18T04:50:53;98830.66;;;6.61
73685;BMP280;61985;51.070;14.064;2023-02-18T04:53:18;98816.50;;;6.64
73685;BMP280;61985;51.070;14.064;2023-02-18T04:55:49;98808.47;;;6.64
73685;BMP280;61985;51.070;14.064;2023-02-18T04:58:14;98828.69;;;6.69
73685;BMP280;61985;51.070;14.064;2023-02-18T05:00:40;98824.50;;;6.61
73685;BMP280;61985;51.070;14.064;2023-02-18T05:03:05;98826.44;;;6.60
73685;BMP280;61985;51.070;14.064;2023-02-18T05:05:30;98834.81;;;6.66
73685;BMP280;61985;51.070;14.064;2023-02-18T05:07:55;98840.59;;;6.64
73685;BMP280;61985;51.070;14.064;2023-02-18T05:10:21;98835.56;;;6.67
73685;BMP280;61985;51.070;14.064;2023-02-18T05:12:46;98832.91;;;6.67
73685;BMP280;61985;51.070;14.064;2023-02-18T05:15:12;98827.19;;;6.64
73685;BMP280;61985;51.070;14.064;2023-02-18T05:17:38;98821.44;;;6.66
73685;BMP280;61985;51.070;14.064;2023-02-18T05:20:04;98822.56;;;6.69
73685;BMP280;61985;51.070;14.064;2023-02-18T05:22:30;98818.00;;;6.66
73685;BMP280;61985;51.070;14.064;2023-02-18T05:24:55;98822.94;;;6.71
73685;BMP280;61985;51.070;14.064;2023-02-18T05:27:20;98812.25;;;6.71
73685;BMP280;61985;51.070;14.064;2023-02-18T05:29:46;98806.88;;;6.67
73685;BMP280;61985;51.070;14.064;2023-02-18T05:32:11;98812.28;;;6.63
73685;BMP280;61985;51.070;14.064;2023-02-18T05:34:36;98805.38;;;6.66
73685;BMP280;61985;51.070;14.064;2023-02-18T05:37:02;98804.59;;;6.69
73685;BMP280;61985;51.070;14.064;2023-02-18T05:39:27;98801.53;;;6.71
73685;BMP280;61985;51.070;14.064;2023-02-18T05:41:52;98807.63;;;6.78
73685;BMP280;61985;51.070;14.064;2023-02-18T05:44:17;98803.03;;;6.75
73685;BMP280;61985;51.070;14.064;2023-02-18T05:47:01;98806.09;;;6.74
73685;BMP280;61985;51.070;14.064;2023-02-18T05:49:28;98811.06;;;6.72
73685;BMP280;61985;51.070;14.064;2023-02-18T05:51:53;98803.81;;;6.72
73685;BMP280;61985;51.070;14.064;2023-02-18T05:54:19;98803.03;;;6.72
73685;BMP280;61985;51.070;14.064;2023-02-18T05:56:44;98797.69;;;6.68
73685;BMP280;61985;51.070;14.064;2023-02-18T05:59:09;98799.28;;;6.62
73685;BMP280;61985;51.070;14.064;2023-02-18T06:01:35;98799.66;;;6.60
73685;BMP280;61985;51.070;14.064;2023-02-18T06:04:00;98798.16;;;6.56
73685;BMP280;61985;51.070;14.064;2023-02-18T06:06:25;98795.06;;;6.57
73685;BMP280;61985;51.070;14.064;2023-02-18T06:08:51;98794.69;;;6.59
73685;BMP280;61985;51.070;14.064;2023-02-18T06:11:16;98791.63;;;6.60
73685;BMP280;61985;51.070;14.064;2023-02-18T06:13:41;98788.56;;;6.62
73685;BMP280;61985;51.070;14.064;2023-02-18T06:16:07;98786.28;;;6.60
73685;BMP280;61985;51.070;14.064;2023-02-18T06:18:32;98793.94;;;6.58
73685;BMP280;61985;51.070;14.064;2023-02-18T06:20:57;98791.66;;;6.53
73685;BMP280;61985;51.070;14.064;2023-02-18T06:23:23;98784.06;;;6.44
73685;BMP280;61985;51.070;14.064;2023-02-18T06:25:48;98779.47;;;6.41
73685;BMP280;61985;51.070;14.064;2023-02-18T06:28:14;98792.91;;;6.38
73685;BMP280;61985;51.070;14.064;2023-02-18T06:30:40;98795.59;;;6.38
73685;BMP280;61985;51.070;14.064;2023-02-18T06:33:05;98797.50;;;6.30
73685;BMP280;61985;51.070;14.064;2023-02-18T06:35:31;98792.53;;;6.29
73685;BMP280;61985;51.070;14.064;2023-02-18T06:37:56;98790.25;;;6.27
73685;BMP280;61985;51.070;14.064;2023-02-18T06:40:22;98802.50;;;6.24
73685;BMP280;61985;51.070;14.064;2023-02-18T06:42:47;98796.38;;;6.20
73685;BMP280;61985;51.070;14.064;2023-02-18T06:45:12;98794.84;;;6.16
73685;BMP280;61985;51.070;14.064;2023-02-18T06:47:38;98784.53;;;6.14
73685;BMP280;61985;51.070;14.064;2023-02-18T06:50:03;98791.81;;;6.14
73685;BMP280;61985;51.070;14.064;2023-02-18T06:52:29;98787.63;;;6.09
73685;BMP280;61985;51.070;14.064;2023-02-18T06:54:57;98780.34;;;6.13
73685;BMP280;61985;51.070;14.064;2023-02-18T06:57:22;98784.16;;;6.12
73685;BMP280;61985;51.070;14.064;2023-02-18T06:59:48;98778.81;;;6.16
73685;BMP280;61985;51.070;14.064;2023-02-18T07:02:13;98771.22;;;6.07
73685;BMP280;61985;51.070;14.064;2023-02-18T07:04:39;98774.25;;;6.09
73685;BMP280;61985;51.070;14.064;2023-02-18T07:07:05;98770.06;;;6.08
73685;BMP280;61985;51.070;14.064;2023-02-18T07:09:30;98758.59;;;6.07
73685;BMP280;61985;51.070;14.064;2023-02-18T09:13:28;98581.91;;;6.74
73685;BMP280;61985;51.070;14.064;2023-02-18T09:16:01;98577.63;;;6.80
73685;BMP280;61985;51.070;14.064;2023-02-18T09:18:27;98565.00;;;6.81
73685;BMP280;61985;51.070;14.064;2023-02-18T09:20:55;98572.28;;;6.80
73685;BMP280;61985;51.070;14.064;2023-02-18T09:23:24;98564.63;;;6.79
73685;BMP280;61985;51.070;14.064;2023-02-18T09:25:50;98555.44;;;6.80
73685;BMP280;61985;51.070;14.064;2023-02-18T09:28:15;98558.47;;;6.82
73685;BMP280;61985;51.070;14.064;2023-02-18T15:12:24;98291.56;;;8.50
73685;BMP280;61985;51.070;14.064;2023-02-18T15:14:51;98293.50;;;8.49
73685;BMP280;61985;51.070;14.064;2023-02-18T15:17:20;98294.50;;;8.39
73685;BMP280;61985;51.070;14.064;2023-02-18T15:19:50;98284.56;;;8.36
73685;BMP280;61985;51.070;14.064;2023-02-18T15:22:18;98289.94;;;8.36
73685;BMP280;61985;51.070;14.064;2023-02-18T15:24:45;98298.00;;;8.36
73685;BMP280;61985;51.070;14.064;2023-02-18T15:27:13;98308.47;;;8.30
73685;BMP280;61985;51.070;14.064;2023-02-18T15:29:39;98277.81;;;8.28
73685;BMP280;61985;51.070;14.064;2023-02-18T15:32:22;98293.25;;;8.24
73685;BMP280;61985;51.070;14.064;2023-02-18T15:34:50;98286.28;;;8.26
73685;BMP280;61985;51.070;14.064;2023-02-18T15:37:17;98296.78;;;8.21
73685;BMP280;61985;51.070;14.064;2023-02-18T15:39:43;98295.56;;;8.22
73685;BMP280;61985;51.070;14.064;2023-02-18T15:42:33;98287.50;;;8.22
73685;BMP280;61985;51.070;14.064;2023-02-18T15:47:41;98287.06;;;8.27
73685;BMP280;61985;51.070;14.064;2023-02-18T15:50:27;98293.94;;;8.28
73685;BMP280;61985;51.070;14.064;2023-02-18T15:52:54;98304.53;;;8.35
73685;BMP280;61985;51.070;14.064;2023-02-18T15:55:24;98304.09;;;8.36
73685;BMP280;61985;51.070;14.064;2023-02-18T15:57:51;98295.66;;;8.38
73685;BMP280;61985;51.070;14.064;2023-02-18T16:00:25;98312.88;;;8.41
73685;BMP280;61985;51.070;14.064;2023-02-18T16:05:27;98310.59;;;8.55
73685;BMP280;61985;51.070;14.064;2023-02-18T16:08:05;98313.25;;;8.59
73685;BMP280;61985;51.070;14.064;2023-02-18T16:13:01;98316.44;;;8.70
73685;BMP280;61985;51.070;14.064;2023-02-18T16:15:37;98319.88;;;8.71
73685;BMP280;61985;51.070;14.064;2023-02-18T16:18:04;98321.72;;;8.74
73685;BMP280;61985;51.070;14.064;2023-02-18T16:20:36;98320.56;;;8.75
73685;BMP280;61985;51.070;14.064;2023-02-18T16:23:10;98323.94;;;8.79
73685;BMP280;61985;51.070;14.064;2023-02-18T16:25:39;98335.69;;;8.85
73685;BMP280;61985;51.070;14.064;2023-02-18T16:28:21;98330.66;;;8.87
73685;BMP280;61985;51.070;14.064;2023-02-18T16:30:47;98336.59;;;8.79
73685;BMP280;61985;51.070;14.064;2023-02-18T16:33:13;98333.41;;;8.84
73685;BMP280;61985;51.070;14.064;2023-02-18T16:35:39;98322.75;;;8.80
73685;BMP280;61985;51.070;14.064;2023-02-18T16:38:05;98334.63;;;8.83
73685;BMP280;61985;51.070;14.064;2023-02-18T16:40:38;98314.50;;;8.71
73685;BMP280;61985;51.070;14.064;2023-02-18T16:43:22;98345.88;;;8.74
73685;BMP280;61985;51.070;14.064;2023-02-18T16:45:53;98351.44;;;8.83
73685;BMP280;61985;51.070;14.064;2023-02-18T16:48:31;98351.81;;;8.85
73685;BMP280;61985;51.070;14.064;2023-02-18T16:51:04;98351.81;;;8.85
73685;BMP280;61985;51.070;14.064;2023-02-18T16:53:29;98362.56;;;8.85
73685;BMP280;61985;51.070;14.064;2023-02-18T16:55:55;98358.63;;;8.90
73685;BMP280;61985;51.070;14.064;2023-02-18T16:58:20;98358.03;;;8.82
73685;BMP280;61985;51.070;14.064;2023-02-18T17:00:47;98363.41;;;8.82
73685;BMP280;61985;51.070;14.064;2023-02-18T17:03:13;98365.59;;;8.87
73685;BMP280;61985;51.070;14.064;2023-02-18T17:05:39;98372.94;;;8.83
73685;BMP280;61985;51.070;14.064;2023-02-18T17:08:25;98364.06;;;8.86
73685;BMP280;61985;51.070;14.064;2023-02-18T17:10:55;98371.66;;;8.91
73685;BMP280;61985;51.070;14.064;2023-02-18T17:13:23;98379.78;;;8.88
73685;BMP280;61985;51.070;14.064;2023-02-18T17:15:51;98371.38;;;8.86
73685;BMP280;61985;51.070;14.064;2023-02-18T17:18:17;98370.03;;;8.94
73685;BMP280;61985;51.070;14.064;2023-02-18T17:20:43;98368.97;;;8.91
73685;BMP280;61985;51.070;14.064;2023-02-18T17:23:16;98380.53;;;8.88
73685;BMP280;61985;51.070;14.064;2023-02-18T17:25:43;98383.00;;;8.99
73685;BMP280;61985;51.070;14.064;2023-02-18T17:28:09;98397.00;;;8.90
73685;BMP280;61985;51.070;14.064;2023-02-18T17:30:37;98384.56;;;8.60
73685;BMP280;61985;51.070;14.064;2023-02-18T17:33:03;98397.06;;;8.50
73685;BMP280;61985;51.070;14.064;2023-02-18T17:35:29;98396.94;;;8.54
73685;BMP280;61985;51.070;14.064;2023-02-18T17:37:55;98399.41;;;8.48
73685;BMP280;61985;51.070;14.064;2023-02-18T17:40:26;98376.59;;;8.57
73685;BMP280;61985;51.070;14.064;2023-02-18T17:42:56;98393.41;;;8.61
73685;BMP280;61985;51.070;14.064;2023-02-18T17:47:49;98422.16;;;8.60
73685;BMP280;61985;51.070;14.064;2023-02-18T17:50:15;98428.22;;;8.64
73685;BMP280;61985;51.070;14.064;2023-02-18T17:52:41;98413.22;;;8.67
73685;BMP280;61985;51.070;14.064;2023-02-18T17:55:21;98428.53;;;8.70
73685;BMP280;61985;51.070;14.064;2023-02-18T17:57:48;98413.56;;;8.69
73685;BMP280;61985;51.070;14.064;2023-02-18T18:00:34;98428.53;;;8.70
73685;BMP280;61985;51.070;14.064;2023-02-18T18:03:01;98430.16;;;8.64
73685;BMP280;61985;51.070;14.064;2023-02-18T18:05:32;98432.22;;;8.56
73685;BMP280;61985;51.070;14.064;2023-02-18T18:07:59;98438.91;;;8.68
73685;BMP280;61985;51.070;14.064;2023-02-18T18:10:27;98462.06;;;8.62
73685;BMP280;61985;51.070;14.064;2023-02-18T18:12:56;98461.19;;;8.65
73685;BMP280;61985;51.070;14.064;2023-02-18T18:15:29;98450.22;;;8.59
73685;BMP280;61985;51.070;14.064;2023-02-18T18:17:56;98452.28;;;8.51
73685;BMP280;61985;51.070;14.064;2023-02-18T18:20:23;98450.75;;;8.50
73685;BMP280;61985;51.070;14.064;2023-02-18T18:22:51;98452.28;;;8.51
73685;BMP280;61985;51.070;14.064;2023-02-18T18:25:19;98461.56;;;8.47
73685;BMP280;61985;51.070;14.064;2023-02-18T18:27:45;98469.66;;;8.43
73685;BMP280;61985;51.070;14.064;2023-02-18T18:30:11;98465.53;;;8.39
73685;BMP280;61985;51.070;14.064;2023-02-18T18:32:36;98468.69;;;8.33
73685;BMP280;61985;51.070;14.064;2023-02-18T18:35:02;98471.38;;;8.33
73685;BMP280;61985;51.070;14.064;2023-02-18T18:37:27;98476.34;;;8.35
73685;BMP280;61985;51.070;14.064;2023-02-18T18:39:52;98477.16;;;8.32
73685;BMP280;61985;51.070;14.064;2023-02-18T18:42:17;98476.34;;;8.35
73685;BMP280;61985;51.070;14.064;2023-02-18T18:44:43;98472.09;;;8.38
73685;BMP280;61985;51.070;14.064;2023-02-18T18:47:08;98472.44;;;8.40
73685;BMP280;61985;51.070;14.064;2023-02-18T18:49:33;98469.25;;;8.45
73685;BMP280;61985;51.070;14.064;2023-02-18T18:51:59;98469.97;;;8.49
73685;BMP280;61985;51.070;14.064;2023-02-18T18:54:24;98475.03;;;8.43
73685;BMP280;61985;51.070;14.064;2023-02-18T18:56:49;98483.50;;;8.42
73685;BMP280;61985;51.070;14.064;2023-02-18T18:59:17;98493.56;;;8.38
73685;BMP280;61985;51.070;14.064;2023-02-18T19:01:42;98486.25;;;8.38
73685;BMP280;61985;51.070;14.064;2023-02-18T19:04:07;98490.25;;;8.30
73685;BMP280;61985;51.070;14.064;2023-02-18T19:06:33;98477.88;;;8.36
73685;BMP280;61985;51.070;14.064;2023-02-18T19:08:59;98485.09;;;8.39
73685;BMP280;61985;51.070;14.064;2023-02-18T19:11:24;98492.66;;;8.44
73685;BMP280;61985;51.070;14.064;2023-02-18T19:13:49;98474.59;;;8.48
73685;BMP280;61985;51.070;14.064;2023-02-18T19:16:29;98485.66;;;8.50
73685;BMP280;61985;51.070;14.064;2023-02-18T19:18:55;98493.41;;;8.45
73685;BMP280;61985;51.070;14.064;2023-02-18T19:21:21;98497.72;;;8.42
73685;BMP280;61985;51.070;14.064;2023-02-18T19:23:46;98491.09;;;8.47
73685;BMP280;61985;51.070;14.064;2023-02-18T19:26:13;98497.72;;;8.42
73685;BMP280;61985;51.070;14.064;2023-02-18T19:28:39;98486.19;;;8.42
73685;BMP280;61985;51.070;14.064;2023-02-18T19:31:08;98497.28;;;8.44
73685;BMP280;61985;51.070;14.064;2023-02-18T19:33:33;98485.31;;;8.48
73685;BMP280;61985;51.070;14.064;2023-02-18T19:35:59;98510.31;;;8.45
73685;BMP280;61985;51.070;14.064;2023-02-18T19:38:24;98505.06;;;8.38
73685;BMP280;61985;51.070;14.064;2023-02-18T19:40:49;98497.06;;;8.34
73685;BMP280;61985;51.070;14.064;2023-02-18T19:43:15;98507.13;;;8.30
73685;BMP280;61985;51.070;14.064;2023-02-18T19:45:45;98498.34;;;8.26
73685;BMP280;61985;51.070;14.064;2023-02-18T19:48:12;98501.81;;;8.27
73685;BMP280;61985;51.070;14.064;2023-02-18T19:50:39;98504.13;;;8.25
73685;BMP280;61985;51.070;14.064;2023-02-18T19:53:04;98512.53;;;8.27
73685;BMP280;61985;51.070;14.064;2023-02-18T19:55:30;98507.53;;;8.29
73685;BMP280;61985;51.070;14.064;2023-02-18T19:57:55;98510.13;;;8.32
73685;BMP280;61985;51.070;14.064;2023-02-18T20:00:21;98510.09;;;8.36
73685;BMP280;61985;51.070;14.064;2023-02-18T20:02:46;98515.84;;;8.34
73685;BMP280;61985;51.070;14.064;2023-02-18T20:05:12;98516.97;;;8.37
73685;BMP280;61985;51.070;14.064;2023-02-18T20:07:38;98514.66;;;8.39
73685;BMP280;61985;51.070;14.064;2023-02-18T20:10:09;98521.91;;;8.39
73685;BMP280;61985;51.070;14.064;2023-02-18T20:12:35;98516.94;;;8.41
73685;BMP280;61985;51.070;14.064;2023-02-18T20:15:01;98529.97;;;8.39
73685;BMP280;61985;51.070;14.064;2023-02-18T20:17:26;98518.47;;;8.38
73685;BMP280;61985;51.070;14.064;2023-02-18T20:19:52;98521.91;;;8.39
73685;BMP280;61985;51.070;14.064;2023-02-18T20:22:17;98528.09;;;8.35
73685;BMP280;61985;51.070;14.064;2023-02-18T20:24:42;98529.28;;;8.34
73685;BMP280;61985;51.070;14.064;2023-02-18T20:27:08;98530.03;;;8.35
73685;BMP280;61985;51.070;14.064;2023-02-18T20:29:34;98517.00;;;8.33
73685;BMP280;61985;51.070;14.064;2023-02-18T20:32:00;98538.09;;;8.35
73685;BMP280;61985;51.070;14.064;2023-02-18T20:34:26;98542.41;;;8.29
73685;BMP280;61985;51.070;14.064;2023-02-18T20:36:51;98545.97;;;8.22
73685;BMP280;61985;51.070;14.064;2023-02-18T20:39:18;98534.03;;;8.27
73685;BMP280;61985;51.070;14.064;2023-02-18T20:41:45;98540.59;;;8.22
73685;BMP280;61985;51.070;14.064;2023-02-18T20:44:11;98541.06;;;8.17
73685;BMP280;61985;51.070;14.064;2023-02-18T20:46:37;98539.56;;;8.16
73685;BMP280;61985;51.070;14.064;2023-02-18T20:49:04;98549.34;;;8.26
73685;BMP280;61985;51.070;14.064;2023-02-18T20:51:31;98543.97;;;8.26
73685;BMP280;61985;51.070;14.064;2023-02-18T20:53:56;98541.75;;;8.21
73685;BMP280;61985;51.070;14.064;2023-02-18T20:56:22;98547.47;;;8.23
73685;BMP280;61985;51.070;14.064;2023-02-18T20:58:47;98557.00;;;8.28
73685;BMP280;61985;51.070;14.064;2023-02-18T21:01:14;98558.19;;;8.27
73685;BMP280;61985;51.070;14.064;2023-02-18T21:03:41;98561.28;;;8.22
73685;BMP280;61985;51.070;14.064;2023-02-18T21:06:09;98563.91;;;8.29
73685;BMP280;61985;51.070;14.064;2023-02-18T21:08:36;98563.91;;;8.29
73685;BMP280;61985;51.070;14.064;2023-02-18T21:11:04;98548.59;;;8.26
73685;BMP280;61985;51.070;14.064;2023-02-18T21:13:30;98537.84;;;8.26
73685;BMP280;61985;51.070;14.064;2023-02-18T21:15:56;98545.91;;;8.26
73685;BMP280;61985;51.070;14.064;2023-02-18T21:18:21;98551.78;;;8.21
73685;BMP280;61985;51.070;14.064;2023-02-18T21:20:46;98564.66;;;8.29
73685;BMP280;61985;51.070;14.064;2023-02-18T21:23:12;98556.31;;;8.24
73685;BMP280;61985;51.070;14.064;2023-02-18T21:25:39;98554.47;;;8.21
73685;BMP280;61985;51.070;14.064;2023-02-18T21:28:05;98563.97;;;8.25
73685;BMP280;61985;51.070;14.064;2023-02-18T21:30:38;98560.47;;;8.28
73685;BMP280;61985;51.070;14.064;2023-02-18T21:33:04;98559.38;;;8.22
73685;BMP280;61985;51.070;14.064;2023-02-18T21:35:33;98551.69;;;8.24
73685;BMP280;61985;51.070;14.064;2023-02-18T21:37:59;98557.13;;;8.21
73685;BMP280;61985;51.070;14.064;2023-02-18T21:40:24;98563.34;;;8.14
73685;BMP280;61985;51.070;14.064;2023-02-18T21:42:50;98564.13;;;8.14
73685;BMP280;61985;51.070;14.064;2023-02-18T21:45:15;98564.06;;;8.18
73685;BMP280;61985;51.070;14.064;2023-02-18T21:47:45;98572.13;;;8.18
73685;BMP280;61985;51.070;14.064;2023-02-18T21:50:11;98553.78;;;8.13
73685;BMP280;61985;51.070;14.064;2023-02-18T21:52:40;98555.69;;;8.12
73685;BMP280;61985;51.070;14.064;2023-02-18T21:55:06;98559.91;;;8.13
73685;BMP280;61985;51.070;14.064;2023-02-18T21:57:32;98564.94;;;8.11
73685;BMP280;61985;51.070;14.064;2023-02-18T21:59:58;98561.03;;;8.16
73685;BMP280;61985;51.070;14.064;2023-02-18T22:02:31;98556.66;;;8.26
73685;BMP280;61985;51.070;14.064;2023-02-18T22:04:57;98553.97;;;8.26
73685;BMP280;61985;51.070;14.064;2023-02-18T22:07:26;98564.75;;;8.22
73685;BMP280;61985;51.070;14.064;2023-02-18T22:09:52;98562.50;;;8.21
73685;BMP280;61985;51.070;14.064;2023-02-18T22:12:21;98564.75;;;8.22
73685;BMP280;61985;51.070;14.064;2023-02-18T22:14:47;98570.41;;;8.28
73685;BMP280;61985;51.070;14.064;2023-02-18T22:17:13;98563.97;;;8.25
73685;BMP280;61985;51.070;14.064;2023-02-18T22:19:38;98563.97;;;8.25
73685;BMP280;61985;51.070;14.064;2023-02-18T22:22:04;98559.34;;;8.26
73685;BMP280;61985;51.070;14.064;2023-02-18T22:24:30;98566.63;;;8.25
73685;BMP280;61985;51.070;14.064;2023-02-18T22:26:56;98561.63;;;8.27
73685;BMP280;61985;51.070;14.064;2023-02-18T22:29:22;98560.22;;;8.19
73685;BMP280;61985;51.070;14.064;2023-02-18T22:31:48;98561.78;;;8.16
73685;BMP280;61985;51.070;14.064;2023-02-18T22:34:14;98549.81;;;8.21
73685;BMP280;61985;51.070;14.064;2023-02-18T22:36:40;98555.66;;;8.16
73685;BMP280;61985;51.070;14.064;2023-02-18T22:39:06;98556.41;;;8.16
73685;BMP280;61985;51.070;14.064;2023-02-18T22:41:33;98558.69;;;8.18